createdAt,value
2022-09-04T00:00:01.179Z,8.45
2022-09-04T00:00:28.524Z,8.00
2022-09-04T00:01:36.004Z,8.50
2022-09-04T00:02:11.832Z,8.45
2022-09-04T00:02:44.761Z,8.15
2022-09-04T00:03:09.150Z,8.30
2022-09-04T00:03:47.495Z,8.25
2022-09-04T00:04:29.154Z,8.43
2022-09-04T00:05:13.487Z,8.93
2022-09-04T00:05:51.553Z,7.97
2022-09-04T00:06:19.599Z,8.68
2022-09-04T00:06:55.838Z,8.60
2022-09-04T00:07:17.689Z,8.85
2022-09-04T00:08:02.563Z,9.30
2022-09-04T00:09:12.620Z,9.13
2022-09-04T00:10:05.410Z,9.00
2022-09-04T00:10:40.770Z,8.63
2022-09-04T00:11:29.496Z,8.18
2022-09-04T00:12:08.751Z,8.82
2022-09-04T00:12:38.294Z,8.85
2022-09-04T00:13:22.601Z,8.77
2022-09-04T00:14:01.077Z,9.07
2022-09-04T00:14:52.453Z,8.63
2022-09-04T00:15:19.748Z,8.82
2022-09-04T00:15:49.828Z,8.85
2022-09-04T00:16:27.853Z,10.52
2022-09-04T00:17:22.307Z,9.75
2022-09-04T00:17:58.137Z,9.55
2022-09-04T00:18:41.829Z,9.60
2022-09-04T00:19:14.117Z,9.23
2022-09-04T00:20:12.341Z,9.25
2022-09-04T00:21:03.171Z,9.23
2022-09-04T00:21:55.950Z,9.30
2022-09-04T00:22:49.677Z,9.50
2022-09-04T00:23:22.684Z,9.40
2022-09-04T00:24:02.365Z,10.07
2022-09-04T00:24:31.576Z,9.68
2022-09-04T00:25:27.247Z,10.07
2022-09-04T00:25:51.039Z,10.15
2022-09-04T00:26:36.689Z,10.23
2022-09-04T00:27:04.319Z,9.85
2022-09-04T00:27:36.081Z,9.95
2022-09-04T00:28:18.779Z,10.32
2022-09-04T00:28:42.174Z,10.32
2022-09-04T00:29:16.340Z,10.23
2022-09-04T00:29:54.395Z,10.10
2022-09-04T00:30:21.553Z,9.88
2022-09-04T00:30:58.597Z,10.00
2022-09-04T00:31:58.807Z,10.23
2022-09-04T00:32:51.894Z,10.35
2022-09-04T00:33:41.205Z,9.50
2022-09-04T00:34:29.323Z,10.80
2022-09-04T00:35:00.128Z,10.70
2022-09-04T00:35:44.853Z,11.23
2022-09-04T00:36:07.519Z,10.73
2022-09-04T00:36:30.594Z,10.82
2022-09-04T00:36:56.158Z,10.48
2022-09-04T00:37:23.375Z,10.55
2022-09-04T00:38:05.345Z,9.90
2022-09-04T00:38:36.600Z,10.10
2022-09-04T00:39:02.935Z,9.63
2022-09-04T00:39:44.923Z,10.20
2022-09-04T00:40:08.977Z,10.02
2022-09-04T00:40:47.572Z,10.50
2022-09-04T00:41:27.024Z,9.85
2022-09-04T00:42:16.873Z,9.80
2022-09-04T00:43:16.317Z,10.52
2022-09-04T00:43:41.293Z,9.98
2022-09-04T00:44:27.258Z,10.48
2022-09-04T00:45:19.469Z,10.10
2022-09-04T00:46:13.108Z,9.52
2022-09-04T00:47:05.392Z,9.18
2022-09-04T00:47:48.821Z,10.30
2022-09-04T00:48:21.598Z,10.20
2022-09-04T00:49:11.589Z,10.30
2022-09-04T00:49:57.872Z,10.40
2022-09-04T00:50:41.303Z,10.10
2022-09-04T00:51:20.628Z,9.57
2022-09-04T00:51:56.959Z,9.85
2022-09-04T00:52:57.477Z,9.75
2022-09-04T00:53:37.456Z,10.20
2022-09-04T00:54:18.840Z,9.10
2022-09-04T00:55:05.225Z,9.95
2022-09-04T00:55:36.432Z,9.32
2022-09-04T00:56:15.949Z,9.15
2022-09-04T00:56:59.599Z,9.73
2022-09-04T00:57:49.642Z,9.15
2022-09-04T00:58:37.498Z,8.98
2022-09-04T00:59:02.000Z,9.25
2022-09-04T01:00:15.801Z,9.35
2022-09-04T01:00:39.042Z,9.02
2022-09-04T01:01:01.262Z,9.60
2022-09-04T01:01:26.745Z,9.23
2022-09-04T01:01:48.722Z,9.15
2022-09-04T01:02:36.534Z,9.38
2022-09-04T01:03:31.392Z,10.18
2022-09-04T01:04:13.959Z,10.10
2022-09-04T01:04:45.686Z,9.18
2022-09-04T01:05:37.863Z,10.05
2022-09-04T01:06:17.233Z,9.55
2022-09-04T01:06:54.202Z,8.93
2022-09-04T01:07:48.854Z,9.27
2022-09-04T01:08:46.458Z,9.75
2022-09-04T01:09:30.399Z,9.07
2022-09-04T01:10:08.798Z,9.43
2022-09-04T01:10:41.866Z,9.07
2022-09-04T01:11:25.215Z,9.60
2022-09-04T01:11:59.392Z,9.52
2022-09-04T01:13:13.293Z,10.00
2022-09-04T01:13:43.485Z,9.60
2022-09-04T01:14:18.314Z,8.90
2022-09-04T01:15:12.199Z,9.45
2022-09-04T01:15:50.979Z,9.43
2022-09-04T01:16:39.615Z,8.55
2022-09-04T01:17:19.684Z,9.45
2022-09-04T01:17:51.607Z,9.90
2022-09-04T01:18:20.605Z,10.05
2022-09-04T01:18:50.747Z,9.80
2022-09-04T01:19:43.752Z,9.35
2022-09-04T01:20:20.403Z,9.73
2022-09-04T01:21:09.801Z,8.93
2022-09-04T01:21:50.528Z,8.60
2022-09-04T01:22:48.411Z,8.93
2022-09-04T01:23:41.291Z,9.10
2022-09-04T01:24:25.013Z,9.60
2022-09-04T01:25:16.305Z,9.50
2022-09-04T01:26:02.614Z,9.52
2022-09-04T01:26:50.040Z,9.07
2022-09-04T01:27:27.869Z,9.73
2022-09-04T01:27:54.724Z,9.60
2022-09-04T01:28:34.640Z,9.40
2022-09-04T01:29:15.544Z,10.13
2022-09-04T01:30:14.688Z,9.45
2022-09-04T01:31:27.414Z,9.90
2022-09-04T01:32:09.130Z,9.35
2022-09-04T01:33:07.622Z,9.55
2022-09-04T01:33:33.756Z,9.70
2022-09-04T01:34:23.386Z,9.30
2022-09-04T01:34:59.625Z,8.23
2022-09-04T01:35:58.135Z,9.57
2022-09-04T01:36:35.740Z,9.32
2022-09-04T01:37:30.872Z,8.95
2022-09-04T01:38:10.553Z,9.82
2022-09-04T01:38:53.472Z,9.82
2022-09-04T01:39:20.797Z,9.80
2022-09-04T01:39:46.157Z,10.13
2022-09-04T01:40:24.129Z,9.70
2022-09-04T01:41:07.820Z,9.77
2022-09-04T01:41:44.349Z,9.70
2022-09-04T01:42:20.934Z,9.63
2022-09-04T01:42:54.860Z,9.88
2022-09-04T01:43:22.582Z,9.70
2022-09-04T01:43:44.690Z,10.57
2022-09-04T01:44:09.356Z,10.32
2022-09-04T01:44:32.557Z,9.68
2022-09-04T01:44:54.329Z,9.80
2022-09-04T01:45:25.917Z,9.88
2022-09-04T01:46:09.109Z,9.52
2022-09-04T01:46:47.270Z,9.32
2022-09-04T01:47:18.196Z,9.40
2022-09-04T01:47:51.721Z,9.93
2022-09-04T01:48:21.714Z,8.82
2022-09-04T01:48:52.306Z,10.48
2022-09-04T01:49:29.051Z,9.95
2022-09-04T01:49:58.563Z,9.40
2022-09-04T01:50:34.190Z,9.13
2022-09-04T01:51:02.441Z,10.18
2022-09-04T01:51:51.407Z,9.40
2022-09-04T01:52:51.115Z,10.20
2022-09-04T01:53:18.695Z,9.88
2022-09-04T01:53:46.136Z,9.27
2022-09-04T01:54:53.054Z,8.85
2022-09-04T01:55:24.263Z,9.70
2022-09-04T01:56:25.738Z,9.50
2022-09-04T01:57:05.763Z,10.50
2022-09-04T01:57:45.915Z,10.32
2022-09-04T01:58:35.887Z,9.82
2022-09-04T01:59:10.540Z,10.20
2022-09-04T02:00:01.902Z,9.70
2022-09-04T02:00:25.579Z,10.02
2022-09-04T02:01:22.335Z,9.90
2022-09-04T02:02:20.363Z,10.10
2022-09-04T02:03:07.214Z,9.45
2022-09-04T02:03:47.468Z,9.85
2022-09-04T02:04:39.839Z,9.68
2022-09-04T02:05:18.828Z,10.30
2022-09-04T02:05:40.571Z,10.10
2022-09-04T02:06:22.756Z,9.73
2022-09-04T02:06:53.435Z,10.32
2022-09-04T02:07:22.992Z,10.52
2022-09-04T02:07:53.924Z,10.02
2022-09-04T02:08:38.748Z,10.30
2022-09-04T02:09:10.901Z,10.75
2022-09-04T02:10:00.247Z,9.77
2022-09-04T02:10:36.732Z,10.48
2022-09-04T02:11:07.853Z,9.90
2022-09-04T02:11:32.038Z,10.13
2022-09-04T02:12:42.461Z,9.97
2022-09-04T02:13:09.683Z,9.88
2022-09-04T02:13:54.000Z,10.60
2022-09-04T02:14:44.057Z,9.95
2022-09-04T02:15:21.311Z,9.95
2022-09-04T02:15:56.052Z,9.63
2022-09-04T02:16:33.690Z,9.82
2022-09-04T02:17:08.672Z,10.00
2022-09-04T02:17:35.310Z,10.82
2022-09-04T02:18:07.337Z,10.20
2022-09-04T02:18:49.401Z,10.18
2022-09-04T02:19:17.088Z,9.75
2022-09-04T02:20:01.939Z,9.93
2022-09-04T02:20:25.243Z,10.52
2022-09-04T02:21:02.779Z,10.07
2022-09-04T02:21:41.048Z,10.85
2022-09-04T02:22:12.517Z,10.65
2022-09-04T02:23:00.108Z,10.63
2022-09-04T02:23:32.888Z,10.80
2022-09-04T02:25:00.177Z,10.10
2022-09-04T02:25:41.243Z,10.55
2022-09-04T02:26:25.974Z,11.32
2022-09-04T02:26:57.007Z,10.50
2022-09-04T02:27:51.457Z,11.52
2022-09-04T02:28:44.913Z,10.93
2022-09-04T02:29:20.742Z,10.75
2022-09-04T02:29:54.651Z,10.18
2022-09-04T02:30:20.847Z,10.10
2022-09-04T02:31:04.658Z,10.32
2022-09-04T02:31:54.320Z,10.85
2022-09-04T02:32:18.916Z,10.82
2022-09-04T02:32:43.423Z,10.30
2022-09-04T02:33:15.396Z,10.18
2022-09-04T02:33:50.845Z,9.98
2022-09-04T02:34:38.397Z,10.20
2022-09-04T02:35:42.016Z,9.68
2022-09-04T02:36:22.672Z,10.45
2022-09-04T02:37:28.540Z,10.30
2022-09-04T02:38:14.659Z,11.13
2022-09-04T02:38:57.550Z,10.50
2022-09-04T02:39:46.942Z,10.90
2022-09-04T02:40:12.159Z,10.18
2022-09-04T02:40:50.600Z,10.60
2022-09-04T02:41:40.307Z,10.52
2022-09-04T02:42:32.194Z,10.35
2022-09-04T02:43:26.276Z,10.48
2022-09-04T02:44:01.384Z,10.48
2022-09-04T02:44:25.959Z,9.70
2022-09-04T02:45:18.922Z,10.20
2022-09-04T02:46:02.023Z,10.40
2022-09-04T02:46:32.159Z,10.85
2022-09-04T02:47:05.536Z,10.60
2022-09-04T02:47:42.701Z,10.63
2022-09-04T02:48:23.285Z,10.98
2022-09-04T02:49:13.328Z,10.52
2022-09-04T02:49:55.818Z,10.98
2022-09-04T02:50:41.742Z,11.38
2022-09-04T02:51:35.520Z,10.38
2022-09-04T02:52:15.475Z,10.75
2022-09-04T02:53:16.673Z,10.35
2022-09-04T02:54:08.841Z,11.50
2022-09-04T02:54:48.499Z,10.98
2022-09-04T02:55:14.728Z,11.77
2022-09-04T02:55:58.418Z,11.45
2022-09-04T02:56:22.696Z,11.60
2022-09-04T02:57:28.172Z,11.35
2022-09-04T02:58:27.284Z,10.48
2022-09-04T02:59:15.334Z,11.85
2022-09-04T02:59:40.281Z,10.60
2022-09-04T03:00:21.248Z,10.68
2022-09-04T03:01:15.072Z,10.57
2022-09-04T03:01:57.501Z,10.90
2022-09-04T03:02:30.342Z,9.85
2022-09-04T03:03:00.268Z,10.07
2022-09-04T03:03:27.656Z,10.20
2022-09-04T03:04:03.176Z,9.70
2022-09-04T03:04:50.029Z,9.90
2022-09-04T03:05:26.288Z,11.00
2022-09-04T03:06:25.554Z,9.98
2022-09-04T03:07:04.704Z,9.32
2022-09-04T03:07:34.842Z,10.13
2022-09-04T03:08:07.312Z,11.10
2022-09-04T03:08:41.672Z,10.60
2022-09-04T03:09:12.774Z,10.60
2022-09-04T03:09:37.325Z,10.55
2022-09-04T03:10:17.967Z,10.38
2022-09-04T03:10:57.652Z,10.63
2022-09-04T03:11:35.083Z,10.43
2022-09-04T03:12:34.327Z,11.90
2022-09-04T03:13:00.613Z,10.60
2022-09-04T03:13:34.921Z,11.02
2022-09-04T03:14:01.981Z,12.35
2022-09-04T03:14:43.107Z,12.10
2022-09-04T03:15:27.548Z,11.55
2022-09-04T03:16:30.004Z,11.90
2022-09-04T03:16:58.278Z,12.18
2022-09-04T03:17:47.159Z,11.93
2022-09-04T03:18:32.705Z,12.45
2022-09-04T03:19:08.657Z,11.95
2022-09-04T03:19:55.822Z,12.38
2022-09-04T03:20:21.992Z,11.52
2022-09-04T03:21:17.265Z,12.23
2022-09-04T03:22:14.462Z,13.13
2022-09-04T03:22:48.942Z,12.88
2022-09-04T03:23:16.209Z,13.15
2022-09-04T03:23:51.639Z,13.63
2022-09-04T03:24:49.904Z,12.60
2022-09-04T03:25:55.641Z,14.05
2022-09-04T03:26:26.789Z,13.75
2022-09-04T03:26:55.157Z,13.90
2022-09-04T03:27:19.011Z,14.05
2022-09-04T03:27:41.725Z,13.90
2022-09-04T03:28:03.902Z,14.57
2022-09-04T03:28:43.940Z,13.98
2022-09-04T03:29:13.578Z,14.10
2022-09-04T03:29:53.886Z,14.75
2022-09-04T03:30:16.929Z,14.50
2022-09-04T03:30:40.424Z,14.30
2022-09-04T03:31:18.533Z,14.30
2022-09-04T03:31:51.087Z,14.63
2022-09-04T03:32:46.410Z,14.45
2022-09-04T03:33:24.186Z,14.05
2022-09-04T03:33:55.788Z,14.15
2022-09-04T03:34:39.807Z,14.70
2022-09-04T03:35:04.951Z,15.15
2022-09-04T03:35:55.492Z,13.95
2022-09-04T03:36:43.657Z,14.15
2022-09-04T03:37:30.599Z,14.25
2022-09-04T03:38:17.672Z,14.40
2022-09-04T03:39:04.298Z,13.77
2022-09-04T03:39:31.598Z,14.30
2022-09-04T03:39:59.702Z,13.65
2022-09-04T03:41:13.438Z,13.60
2022-09-04T03:41:52.031Z,13.50
2022-09-04T03:42:46.401Z,14.57
2022-09-04T03:43:36.309Z,14.30
2022-09-04T03:44:12.166Z,14.32
2022-09-04T03:44:58.544Z,13.07
2022-09-04T03:45:47.312Z,13.43
2022-09-04T03:46:09.128Z,14.05
2022-09-04T03:47:10.235Z,13.88
2022-09-04T03:47:51.686Z,13.68
2022-09-04T03:48:47.694Z,13.88
2022-09-04T03:49:15.156Z,14.53
2022-09-04T03:50:01.933Z,13.27
2022-09-04T03:50:44.708Z,14.52
2022-09-04T03:51:18.247Z,13.95
2022-09-04T03:51:52.850Z,13.10
2022-09-04T03:52:22.646Z,13.95
2022-09-04T03:53:08.029Z,14.18
2022-09-04T03:53:47.799Z,13.93
2022-09-04T03:54:18.272Z,14.00
2022-09-04T03:54:45.768Z,14.25
2022-09-04T03:55:19.421Z,14.20
2022-09-04T03:56:02.740Z,14.07
2022-09-04T03:56:30.262Z,14.13
2022-09-04T03:57:00.922Z,14.07
2022-09-04T03:57:40.705Z,14.30
2022-09-04T03:58:51.773Z,13.75
2022-09-04T03:59:31.974Z,13.82
2022-09-04T03:59:59.763Z,13.65
2022-09-04T04:00:22.660Z,13.52
2022-09-04T04:01:13.427Z,14.35
2022-09-04T04:01:47.279Z,13.75
2022-09-04T04:02:31.453Z,13.00
2022-09-04T04:03:02.448Z,13.32
2022-09-04T04:03:31.308Z,12.68
2022-09-04T04:04:15.812Z,12.80
2022-09-04T04:05:01.719Z,13.35
2022-09-04T04:05:26.167Z,11.98
2022-09-04T04:06:25.111Z,11.35
2022-09-04T04:06:51.428Z,11.70
2022-09-04T04:07:21.680Z,10.77
2022-09-04T04:07:58.434Z,10.88
2022-09-04T04:08:41.118Z,10.60
2022-09-04T04:09:34.793Z,11.07
2022-09-04T04:10:19.617Z,10.95
2022-09-04T04:10:47.489Z,10.80
2022-09-04T04:11:28.115Z,11.52
2022-09-04T04:12:13.541Z,11.55
2022-09-04T04:13:08.463Z,11.13
2022-09-04T04:13:48.327Z,11.00
2022-09-04T04:14:51.998Z,11.63
2022-09-04T04:15:30.464Z,10.95
2022-09-04T04:16:31.473Z,10.82
2022-09-04T04:16:56.558Z,10.02
2022-09-04T04:17:27.559Z,11.10
2022-09-04T04:17:53.222Z,10.95
2022-09-04T04:18:41.579Z,10.27
2022-09-04T04:19:12.060Z,10.98
2022-09-04T04:19:49.051Z,10.80
2022-09-04T04:20:58.033Z,10.50
2022-09-04T04:21:55.267Z,9.60
2022-09-04T04:22:29.155Z,9.57
2022-09-04T04:23:35.620Z,9.73
2022-09-04T04:24:28.965Z,9.95
2022-09-04T04:24:59.753Z,9.88
2022-09-04T04:25:55.178Z,10.45
2022-09-04T04:26:25.784Z,10.00
2022-09-04T04:27:08.835Z,10.88
2022-09-04T04:28:07.559Z,9.82
2022-09-04T04:29:08.574Z,11.50
2022-09-04T04:29:48.179Z,10.95
2022-09-04T04:30:14.479Z,10.77
2022-09-04T04:31:17.550Z,10.77
2022-09-04T04:32:10.447Z,10.57
2022-09-04T04:32:44.257Z,11.35
2022-09-04T04:33:09.111Z,10.95
2022-09-04T04:33:55.308Z,11.10
2022-09-04T04:34:31.193Z,11.05
2022-09-04T04:35:17.255Z,11.82
2022-09-04T04:35:54.784Z,11.98
2022-09-04T04:36:49.357Z,11.50
2022-09-04T04:37:43.775Z,10.63
2022-09-04T04:38:20.777Z,10.98
2022-09-04T04:38:54.785Z,11.35
2022-09-04T04:39:42.604Z,11.77
2022-09-04T04:40:15.246Z,11.32
2022-09-04T04:41:09.010Z,11.30
2022-09-04T04:42:05.772Z,11.35
2022-09-04T04:42:49.220Z,11.07
2022-09-04T04:43:16.953Z,11.52
2022-09-04T04:44:16.876Z,11.20
2022-09-04T04:45:46.224Z,12.05
2022-09-04T04:46:34.730Z,11.20
2022-09-04T04:47:19.987Z,10.95
2022-09-04T04:47:57.008Z,11.90
2022-09-04T04:48:37.289Z,11.43
2022-09-04T04:49:17.604Z,11.30
2022-09-04T04:50:10.383Z,11.20
2022-09-04T04:50:40.179Z,11.25
2022-09-04T04:51:42.519Z,10.73
2022-09-04T04:52:19.179Z,10.82
2022-09-04T04:52:52.161Z,10.35
2022-09-04T04:53:43.911Z,10.50
2022-09-04T04:54:47.427Z,11.85
2022-09-04T04:55:35.417Z,10.75
2022-09-04T04:56:06.788Z,11.20
2022-09-04T04:56:48.187Z,11.23
2022-09-04T04:57:19.069Z,11.68
2022-09-04T04:57:59.358Z,10.75
2022-09-04T04:58:42.588Z,11.35
2022-09-04T04:59:23.419Z,11.30
2022-09-04T05:00:22.776Z,11.52
2022-09-04T05:00:50.392Z,11.43
2022-09-04T05:01:33.178Z,11.32
2022-09-04T05:02:07.681Z,10.40
2022-09-04T05:03:04.298Z,10.70
2022-09-04T05:03:54.988Z,10.90
2022-09-04T05:04:37.337Z,10.80
2022-09-04T05:05:34.445Z,10.02
2022-09-04T05:06:20.145Z,10.65
2022-09-04T05:07:04.131Z,10.65
2022-09-04T05:07:53.890Z,10.10
2022-09-04T05:08:33.849Z,10.85
2022-09-04T05:09:06.254Z,10.77
2022-09-04T05:09:44.483Z,10.82
2022-09-04T05:10:38.183Z,11.15
2022-09-04T05:11:22.730Z,10.68
2022-09-04T05:11:59.594Z,10.70
2022-09-04T05:12:43.894Z,10.80
2022-09-04T05:13:33.148Z,11.15
2022-09-04T05:14:03.958Z,10.52
2022-09-04T05:14:38.077Z,10.15
2022-09-04T05:15:27.937Z,10.13
2022-09-04T05:16:09.682Z,10.05
2022-09-04T05:16:55.852Z,9.38
2022-09-04T05:17:34.209Z,9.65
2022-09-04T05:18:16.797Z,9.48
2022-09-04T05:18:51.264Z,9.10
2022-09-04T05:19:24.915Z,8.70
2022-09-04T05:20:27.009Z,8.73
2022-09-04T05:21:24.919Z,8.30
2022-09-04T05:22:05.103Z,8.90
2022-09-04T05:22:34.615Z,8.13
2022-09-04T05:23:22.127Z,7.70
2022-09-04T05:25:35.331Z,7.95
2022-09-04T05:26:23.723Z,7.97
2022-09-04T05:27:07.008Z,8.10
2022-09-04T05:27:58.982Z,8.15
2022-09-04T05:28:48.968Z,8.02
2022-09-04T05:30:11.532Z,7.82
2022-09-04T05:30:53.256Z,8.00
2022-09-04T05:31:21.228Z,8.30
2022-09-04T05:32:04.769Z,7.75
2022-09-04T05:32:56.437Z,8.40
2022-09-04T05:33:35.549Z,8.57
2022-09-04T05:33:57.920Z,8.07
2022-09-04T05:34:36.821Z,7.90
2022-09-04T05:35:35.540Z,8.30
2022-09-04T05:36:21.215Z,8.63
2022-09-04T05:37:09.340Z,8.38
2022-09-04T05:38:03.719Z,8.35
2022-09-04T05:39:14.479Z,8.52
2022-09-04T05:41:25.719Z,8.10
2022-09-04T05:42:35.343Z,7.50
2022-09-04T05:43:48.313Z,7.93
2022-09-04T05:45:54.120Z,7.65
2022-09-04T05:46:37.608Z,8.63
2022-09-04T05:48:56.568Z,9.25
2022-09-04T05:49:35.867Z,8.38
2022-09-04T05:50:23.516Z,8.30
2022-09-04T05:51:13.338Z,8.35
2022-09-04T05:52:00.662Z,8.13
2022-09-04T05:54:35.878Z,8.30
2022-09-04T05:55:31.386Z,8.15
2022-09-04T05:56:09.232Z,7.60
2022-09-04T05:57:16.567Z,8.25
2022-09-04T05:57:55.152Z,7.38
2022-09-04T05:59:52.203Z,7.70
2022-09-04T06:00:37.942Z,8.55
2022-09-04T06:01:16.096Z,8.07
2022-09-04T06:02:08.575Z,8.15
2022-09-04T06:02:50.696Z,7.85
2022-09-04T06:03:36.215Z,7.32
2022-09-04T06:04:28.710Z,6.93
2022-09-04T06:04:50.588Z,6.82
2022-09-04T06:05:41.951Z,6.80
2022-09-04T06:06:12.015Z,6.32
2022-09-04T06:06:47.709Z,6.47
2022-09-04T06:07:30.650Z,6.00
2022-09-04T06:08:07.242Z,5.00
2022-09-04T06:08:44.590Z,5.22
2022-09-04T06:09:36.944Z,5.47
2022-09-04T06:10:10.242Z,5.50
2022-09-04T06:10:50.701Z,5.60
2022-09-04T06:11:34.115Z,5.43
2022-09-04T06:12:07.607Z,5.53
2022-09-04T06:12:36.656Z,5.22
2022-09-04T06:13:07.270Z,5.40
2022-09-04T06:13:53.318Z,5.40
2022-09-04T06:14:23.495Z,5.00
2022-09-04T06:15:11.384Z,5.18
2022-09-04T06:15:51.471Z,4.82
2022-09-04T06:16:37.217Z,4.93
2022-09-04T06:17:20.118Z,5.33
2022-09-04T06:18:26.378Z,5.47
2022-09-04T06:19:03.344Z,5.28
2022-09-04T06:19:46.434Z,5.40
2022-09-04T06:20:14.017Z,5.82
2022-09-04T06:20:38.911Z,5.25
2022-09-04T06:21:24.979Z,5.30
2022-09-04T06:22:20.313Z,5.18
2022-09-04T06:23:11.914Z,5.30
2022-09-04T06:23:45.285Z,5.20
2022-09-04T06:24:31.678Z,5.22
2022-09-04T06:25:13.628Z,5.47
2022-09-04T06:26:06.688Z,5.28
2022-09-04T06:26:57.640Z,5.18
2022-09-04T06:27:28.661Z,5.28
2022-09-04T06:28:20.850Z,5.22
2022-09-04T06:29:18.662Z,5.43
2022-09-04T06:30:18.494Z,5.22
2022-09-04T06:31:05.171Z,5.07
2022-09-04T06:31:34.473Z,4.70
2022-09-04T06:32:17.103Z,4.53
2022-09-04T06:33:12.095Z,4.60
2022-09-04T06:34:02.674Z,4.53
2022-09-04T06:34:43.021Z,4.40
2022-09-04T06:35:09.282Z,4.20
2022-09-04T06:35:34.135Z,4.15
2022-09-04T06:36:19.336Z,3.78
2022-09-04T06:36:59.843Z,4.10
2022-09-04T06:37:33.866Z,3.97
2022-09-04T06:38:17.488Z,4.25
2022-09-04T06:39:04.206Z,3.92
2022-09-04T06:39:59.967Z,4.13
2022-09-04T06:40:29.872Z,4.10
2022-09-04T06:41:28.135Z,3.78
2022-09-04T06:42:04.574Z,3.83
2022-09-04T06:42:26.345Z,3.60
2022-09-04T06:43:21.504Z,3.70
2022-09-04T06:43:48.751Z,3.47
2022-09-04T06:44:47.191Z,3.10
2022-09-04T06:45:20.770Z,3.20
2022-09-04T06:46:02.126Z,3.28
2022-09-04T06:46:38.991Z,2.90
2022-09-04T06:47:09.308Z,3.17
2022-09-04T06:47:37.031Z,2.67
2022-09-04T06:48:13.938Z,2.80
2022-09-04T06:49:02.389Z,2.88
2022-09-04T06:49:42.573Z,2.63
2022-09-04T06:50:17.465Z,2.72
2022-09-04T06:50:39.256Z,2.83
2022-09-04T06:51:45.242Z,2.92
2022-09-04T06:52:40.808Z,3.20
2022-09-04T06:53:16.261Z,2.70
2022-09-04T06:53:48.290Z,2.70
2022-09-04T06:54:22.466Z,2.90
2022-09-04T06:55:06.699Z,3.35
2022-09-04T06:55:41.990Z,3.10
2022-09-04T06:56:26.828Z,3.40
2022-09-04T06:57:03.760Z,3.20
2022-09-04T06:57:48.138Z,3.20
2022-09-04T07:16:39.361Z,2.65
2022-09-04T07:17:15.952Z,2.60
2022-09-04T07:19:01.879Z,2.65
2022-09-04T07:22:28.402Z,2.90
2022-09-04T07:24:00.959Z,2.70
2022-09-04T07:26:41.334Z,2.70
2022-09-04T07:32:55.786Z,1.77
2022-09-04T07:33:27.290Z,1.67
2022-09-04T07:34:01.288Z,1.63
2022-09-04T07:34:37.562Z,1.80
2022-09-04T07:35:09.999Z,1.48
2022-09-04T07:35:49.130Z,1.80
2022-09-04T07:36:29.570Z,1.65
2022-09-04T07:37:25.107Z,1.70
2022-09-04T07:38:08.803Z,1.58
2022-09-04T07:38:39.371Z,1.67
2022-09-04T07:39:11.899Z,1.60
2022-09-04T07:39:57.204Z,1.60
2022-09-04T07:40:41.763Z,1.67
2022-09-04T07:41:32.361Z,1.38
2022-09-04T07:42:18.394Z,1.60
2022-09-04T07:42:45.835Z,1.60
2022-09-04T07:43:21.373Z,1.38
2022-09-04T07:43:49.254Z,1.50
2022-09-04T07:44:23.445Z,1.45
2022-09-04T07:45:00.627Z,1.65
2022-09-04T07:45:36.800Z,1.58
2022-09-04T07:46:27.910Z,1.63
2022-09-04T07:47:02.104Z,1.65
2022-09-04T07:47:39.486Z,1.50
2022-09-04T07:48:32.332Z,1.55
2022-09-04T07:49:29.393Z,1.63
2022-09-04T07:50:15.043Z,1.58
2022-09-04T07:50:50.594Z,1.52
2022-09-04T07:51:24.456Z,1.45
2022-09-04T07:51:55.044Z,1.50
2022-09-04T07:52:27.057Z,1.23
2022-09-04T07:52:50.357Z,1.40
2022-09-04T07:53:48.656Z,1.40
2022-09-04T07:54:45.295Z,1.45
2022-09-04T07:55:42.068Z,1.60
2022-09-04T07:56:45.133Z,1.35
2022-09-04T07:57:41.419Z,1.70
2022-09-04T07:58:33.458Z,1.70
2022-09-04T07:59:13.488Z,1.67
2022-09-04T07:59:57.094Z,1.75
2022-09-04T08:00:22.608Z,1.55
2022-09-04T08:01:06.362Z,1.80
2022-09-04T08:01:53.924Z,1.60
2022-09-04T08:02:37.175Z,1.63
2022-09-04T08:03:11.993Z,1.63
2022-09-04T08:04:01.303Z,1.50
2022-09-04T08:04:44.350Z,1.63
2022-09-04T08:07:30.330Z,1.50
2022-09-04T08:10:13.062Z,1.70
2022-09-04T08:19:32.758Z,1.90
2022-09-04T08:20:26.582Z,1.50
2022-09-04T08:20:56.777Z,1.75
2022-09-04T08:21:43.101Z,1.90
2022-09-04T08:22:06.524Z,1.80
2022-09-04T08:22:40.738Z,1.80
2022-09-04T08:23:18.497Z,1.67
2022-09-04T08:23:48.149Z,1.77
2022-09-04T08:24:18.935Z,1.80
2022-09-04T08:24:55.258Z,1.70
2022-09-04T08:25:44.846Z,1.67
2022-09-04T08:26:33.640Z,1.65
2022-09-04T08:40:01.145Z,1.70
2022-09-04T08:52:55.821Z,2.00
2022-09-04T08:53:54.712Z,1.60
2022-09-04T08:56:34.312Z,1.88
2022-09-04T08:57:04.180Z,1.70
2022-09-04T08:58:03.262Z,1.60
2022-09-04T08:58:49.065Z,1.55
2022-09-04T08:59:48.437Z,1.60
2022-09-04T09:00:21.442Z,1.60
2022-09-04T09:01:07.838Z,1.70
2022-09-04T09:01:54.255Z,1.80
2022-09-04T09:02:47.897Z,1.45
2022-09-04T09:03:20.471Z,1.80
2022-09-04T09:03:57.520Z,1.50
2022-09-04T09:04:56.848Z,1.70
2022-09-04T09:05:40.327Z,1.27
2022-09-04T09:06:10.393Z,1.33
2022-09-04T09:06:53.970Z,1.50
2022-09-04T09:07:45.970Z,1.38
2022-09-04T09:08:33.369Z,1.70
2022-09-04T09:09:14.131Z,1.58
2022-09-04T09:10:12.578Z,1.40
2022-09-04T09:10:34.665Z,1.33
2022-09-04T09:11:03.464Z,1.20
2022-09-04T09:11:53.285Z,1.15
2022-09-04T09:12:40.257Z,1.58
2022-09-04T09:13:30.376Z,1.42
2022-09-04T09:14:04.136Z,1.20
2022-09-04T09:14:46.621Z,1.40
2022-09-04T09:15:29.636Z,1.15
2022-09-04T09:16:18.758Z,1.30
2022-09-04T09:16:44.923Z,1.30
2022-09-04T09:17:35.223Z,1.45
2022-09-04T09:18:20.342Z,1.48
2022-09-04T09:19:05.990Z,1.55
2022-09-04T09:19:37.981Z,1.67
2022-09-04T09:20:18.081Z,1.42
2022-09-04T09:21:07.716Z,1.30
2022-09-04T09:21:50.597Z,1.50
2022-09-04T09:22:18.161Z,1.40
2022-09-04T09:23:18.525Z,1.70
2022-09-04T09:23:55.903Z,1.50
2022-09-04T09:24:36.339Z,1.30
2022-09-04T09:25:22.248Z,1.52
2022-09-04T09:25:57.212Z,1.60
2022-09-04T09:26:29.480Z,1.55
2022-09-04T09:27:25.434Z,1.23
2022-09-04T09:28:25.106Z,1.67
2022-09-04T09:29:08.778Z,1.30
2022-09-04T09:29:41.826Z,1.10
2022-09-04T09:30:22.706Z,1.30
2022-09-04T09:31:00.065Z,1.25
2022-09-04T09:31:35.452Z,1.40
2022-09-04T09:32:12.176Z,1.23
2022-09-04T09:32:45.927Z,1.42
2022-09-04T09:33:13.543Z,1.30
2022-09-04T09:33:59.702Z,1.15
2022-09-04T09:35:03.882Z,1.30
2022-09-04T09:35:46.532Z,1.30
2022-09-04T09:36:36.914Z,1.40
2022-09-04T09:37:53.958Z,1.60
2022-09-04T09:38:36.917Z,1.65
2022-09-04T09:39:36.437Z,1.48
2022-09-04T09:40:09.695Z,1.33
2022-09-04T09:41:00.602Z,1.58
2022-09-04T09:42:01.350Z,1.70
2022-09-04T09:42:37.616Z,1.50
2022-09-04T09:43:21.100Z,1.50
2022-09-04T09:44:12.778Z,1.65
2022-09-04T09:44:58.849Z,1.42
2022-09-04T09:45:48.655Z,1.50
2022-09-04T09:46:45.076Z,1.40
2022-09-04T09:47:37.486Z,1.70
2022-09-04T09:48:56.676Z,1.70
2022-09-04T09:56:25.914Z,1.60
2022-09-04T09:57:21.314Z,1.70
2022-09-04T09:58:19.395Z,1.73
2022-09-04T09:59:35.279Z,1.60
2022-09-04T10:00:17.569Z,2.00
2022-09-04T10:01:08.454Z,1.45
2022-09-04T10:01:48.692Z,1.40
2022-09-04T10:02:25.448Z,1.90
2022-09-04T10:03:02.303Z,1.83
2022-09-04T10:03:38.952Z,1.95
2022-09-04T10:04:10.132Z,1.70
2022-09-04T10:04:40.138Z,1.60
2022-09-04T10:05:46.129Z,1.38
2022-09-04T10:06:40.381Z,1.58
2022-09-04T10:07:24.667Z,1.50
2022-09-04T10:08:23.374Z,1.60
2022-09-04T10:09:16.337Z,1.67
2022-09-04T10:09:52.731Z,1.80
2022-09-04T10:10:48.913Z,1.65
2022-09-04T10:11:32.881Z,1.67
2022-09-04T10:12:12.586Z,1.60
2022-09-04T10:12:50.238Z,1.70
2022-09-04T10:13:26.795Z,1.80
2022-09-04T10:13:54.581Z,1.70
2022-09-04T10:14:54.714Z,1.63
2022-09-04T10:15:29.238Z,1.73
2022-09-04T10:16:21.069Z,1.70
2022-09-04T10:17:19.908Z,1.60
2022-09-04T10:17:56.818Z,1.65
2022-09-04T10:18:59.247Z,1.58
2022-09-04T10:19:54.710Z,1.77
2022-09-04T10:20:49.520Z,1.85
2022-09-04T10:21:23.544Z,1.90
2022-09-04T10:22:08.444Z,1.80
2022-09-04T10:22:55.244Z,1.65
2022-09-04T10:23:38.053Z,1.60
2022-09-04T10:24:27.592Z,1.73
2022-09-04T10:25:14.636Z,1.73
2022-09-04T10:26:07.382Z,1.77
2022-09-04T10:26:56.453Z,2.05
2022-09-04T10:27:44.454Z,1.95
2022-09-04T10:28:54.716Z,1.88
2022-09-04T10:29:50.253Z,2.33
2022-09-04T10:32:13.271Z,1.80
2022-09-04T10:32:41.278Z,1.88
2022-09-04T10:41:26.325Z,2.10
2022-09-04T10:42:26.096Z,2.05
2022-09-04T11:22:44.575Z,2.60
2022-09-04T11:24:36.187Z,2.70
2022-09-04T11:25:27.634Z,2.95
2022-09-04T11:25:55.629Z,2.90
2022-09-04T11:28:41.223Z,2.70
2022-09-04T11:29:31.403Z,2.60
2022-09-04T11:30:02.479Z,3.00
2022-09-04T11:34:20.577Z,2.83
2022-09-04T11:35:01.135Z,2.83
2022-09-04T11:35:32.346Z,2.45